createdAt,value
2022-08-26T00:02:12.683Z,100182.75
2022-08-26T00:04:41.134Z,100186.78
2022-08-26T00:07:09.050Z,100178.22
2022-08-26T00:09:37.285Z,100179.50
2022-08-26T00:12:09.557Z,100181.44
2022-08-26T00:14:40.454Z,100177.31
2022-08-26T00:17:08.768Z,100179.09
2022-08-26T00:19:37.352Z,100178.53
2022-08-26T00:22:06.023Z,100176.53
2022-08-26T00:24:34.442Z,100183.84
2022-08-26T00:27:02.359Z,100176.44
2022-08-26T00:29:32.041Z,100178.81
2022-08-26T00:32:06.564Z,100179.25
2022-08-26T00:34:34.832Z,100174.84
2022-08-26T00:37:02.662Z,100173.44
2022-08-26T00:39:32.160Z,100174.50
2022-08-26T00:42:00.536Z,100177.50
2022-08-26T00:44:28.241Z,100186.41
2022-08-26T00:47:02.772Z,100180.13
2022-08-26T00:49:43.829Z,100186.00
2022-08-26T00:52:19.728Z,100179.06
2022-08-26T00:54:56.609Z,100184.97
2022-08-26T00:57:25.532Z,100193.03
2022-08-26T00:59:58.455Z,100189.37
2022-08-26T01:02:27.224Z,100192.34
2022-08-26T01:05:00.827Z,100189.56
2022-08-26T01:07:32.669Z,100195.94
2022-08-26T01:10:06.758Z,100194.72
2022-08-26T01:12:42.490Z,100189.37
2022-08-26T01:15:15.488Z,100188.34
2022-08-26T01:17:43.875Z,100190.22
2022-08-26T01:20:31.990Z,100190.94
2022-08-26T01:23:03.393Z,100188.44
2022-08-26T01:25:34.336Z,100188.22
2022-08-26T01:28:06.549Z,100189.72
2022-08-26T01:30:35.729Z,100194.50
2022-08-26T01:33:06.893Z,100195.84
2022-08-26T01:35:34.843Z,100184.41
2022-08-26T01:38:04.189Z,100191.84
2022-08-26T01:40:37.316Z,100200.94
2022-08-26T01:43:09.662Z,100196.34
2022-08-26T01:45:40.581Z,100190.00
2022-08-26T01:48:14.553Z,100194.91
2022-08-26T01:50:45.151Z,100189.13
2022-08-26T01:53:17.145Z,100193.59
2022-08-26T01:55:49.133Z,100187.09
2022-08-26T01:58:22.836Z,100197.22
2022-08-26T02:00:52.287Z,100187.84
2022-08-26T02:03:22.370Z,100190.16
2022-08-26T02:06:00.700Z,100188.00
2022-08-26T02:08:36.005Z,100190.22
2022-08-26T02:11:04.793Z,100181.03
2022-08-26T02:13:38.153Z,100181.59
2022-08-26T02:16:08.402Z,100189.75
2022-08-26T02:18:40.280Z,100181.16
2022-08-26T02:21:10.102Z,100184.13
2022-08-26T02:23:38.224Z,100187.44
2022-08-26T02:26:17.932Z,100183.53
2022-08-26T02:29:27.603Z,100185.72
2022-08-26T02:31:56.010Z,100189.84
2022-08-26T02:34:32.007Z,100186.91
2022-08-26T02:37:02.358Z,100176.84
2022-08-26T02:39:32.695Z,100175.34
2022-08-26T02:42:00.548Z,100181.84
2022-08-26T02:44:29.091Z,100182.09
2022-08-26T02:46:57.500Z,100186.75
2022-08-26T02:49:26.978Z,100180.66
2022-08-26T02:51:54.680Z,100180.72
2022-08-26T02:54:22.999Z,100184.56
2022-08-26T02:56:51.526Z,100185.75
2022-08-26T02:59:19.254Z,100183.25
2022-08-26T03:01:55.926Z,100192.16
2022-08-26T03:04:25.886Z,100187.38
2022-08-26T03:06:55.592Z,100178.50
2022-08-26T03:09:24.458Z,100188.97
2022-08-26T03:11:52.414Z,100190.75
2022-08-26T03:14:21.013Z,100189.28
2022-08-26T03:16:50.946Z,100187.09
2022-08-26T03:19:19.175Z,100188.22
2022-08-26T03:21:47.962Z,100182.31
2022-08-26T03:24:17.612Z,100180.41
2022-08-26T03:26:52.743Z,100187.72
2022-08-26T03:29:41.669Z,100187.31
2022-08-26T03:32:10.073Z,100189.34
2022-08-26T03:34:38.744Z,100195.22
2022-08-26T03:37:06.578Z,100189.66
2022-08-26T03:39:34.679Z,100187.97
2022-08-26T03:42:02.703Z,100195.50
2022-08-26T03:44:30.545Z,100199.97
2022-08-26T03:46:58.275Z,100195.50
2022-08-26T03:49:28.892Z,100196.59
2022-08-26T03:51:56.729Z,100195.84
2022-08-26T03:54:24.531Z,100194.59
2022-08-26T03:56:52.776Z,100189.28
2022-08-26T03:59:21.014Z,100197.78
2022-08-26T04:01:49.006Z,100198.50
2022-08-26T04:04:17.284Z,100197.69
2022-08-26T04:06:45.192Z,100196.69
2022-08-26T04:09:20.894Z,100198.94
2022-08-26T04:11:50.733Z,100196.97
2022-08-26T04:14:22.668Z,100199.22
2022-08-26T04:16:52.235Z,100201.34
2022-08-26T04:19:21.176Z,100195.88
2022-08-26T04:21:53.282Z,100194.31
2022-08-26T04:24:24.654Z,100194.19
2022-08-26T04:26:52.867Z,100200.09
2022-08-26T04:29:26.368Z,100190.91
2022-08-26T04:31:55.965Z,100193.63
2022-08-26T04:34:27.268Z,100187.28
2022-08-26T04:36:57.749Z,100191.47
2022-08-26T04:39:27.691Z,100194.03
2022-08-26T04:41:57.870Z,100190.72
2022-08-26T04:44:29.185Z,100191.09
2022-08-26T04:46:58.562Z,100191.88
2022-08-26T04:49:27.656Z,100190.03
2022-08-26T04:51:55.397Z,100194.81
2022-08-26T04:54:23.754Z,100192.97
2022-08-26T04:56:54.245Z,100185.59
2022-08-26T04:59:22.030Z,100191.16
2022-08-26T05:01:53.303Z,100193.19
2022-08-26T05:04:21.475Z,100189.44
2022-08-26T05:06:50.111Z,100183.06
2022-08-26T05:09:21.486Z,100186.63
2022-08-26T05:11:52.158Z,100188.81
2022-08-26T05:14:20.433Z,100184.19
2022-08-26T05:16:48.095Z,100181.06
2022-08-26T05:19:19.194Z,100186.09
2022-08-26T05:21:48.727Z,100192.97
2022-08-26T05:24:17.829Z,100190.94
2022-08-26T05:26:47.280Z,100189.34
2022-08-26T05:29:17.043Z,100184.47
2022-08-26T05:31:44.713Z,100182.94
2022-08-26T05:34:13.139Z,100191.56
2022-08-26T05:36:41.294Z,100190.06
2022-08-26T05:39:10.611Z,100198.47
2022-08-26T05:41:41.355Z,100190.22
2022-08-26T05:44:11.093Z,100194.09
2022-08-26T05:46:40.424Z,100195.09
2022-08-26T05:49:12.520Z,100194.50
2022-08-26T05:51:45.244Z,100195.75
2022-08-26T05:54:14.941Z,100196.69
2022-08-26T05:56:53.269Z,100201.28
2022-08-26T05:59:24.214Z,100204.56
2022-08-26T06:01:55.202Z,100200.91
2022-08-26T06:04:28.393Z,100195.63
2022-08-26T06:06:58.262Z,100197.22
2022-08-26T06:09:26.993Z,100191.59
2022-08-26T06:11:55.987Z,100195.09
2022-08-26T06:14:23.818Z,100193.25
2022-08-26T06:16:52.062Z,100195.63
2022-08-26T06:19:21.645Z,100194.47
2022-08-26T06:21:53.988Z,100190.34
2022-08-26T06:24:41.520Z,100189.22
2022-08-26T06:27:13.772Z,100196.53
2022-08-26T06:29:41.962Z,100192.34
2022-08-26T06:32:09.663Z,100195.50
2022-08-26T06:34:37.495Z,100194.28
2022-08-26T06:37:06.248Z,100187.88
2022-08-26T06:39:34.446Z,100193.28
2022-08-26T06:42:06.080Z,100200.56
2022-08-26T06:44:34.839Z,100193.28
2022-08-26T06:47:02.592Z,100203.63
2022-08-26T06:49:30.430Z,100199.41
2022-08-26T06:51:58.932Z,100193.25
2022-08-26T06:54:32.254Z,100198.59
2022-08-26T06:57:01.200Z,100199.78
2022-08-26T06:59:31.247Z,100201.31
2022-08-26T07:01:59.165Z,100196.25
2022-08-26T07:04:28.137Z,100195.78
2022-08-26T07:06:56.570Z,100197.69
2022-08-26T07:09:28.179Z,100194.59
2022-08-26T07:11:56.679Z,100196.50
2022-08-26T07:14:26.178Z,100193.31
2022-08-26T07:16:54.972Z,100193.22
2022-08-26T07:19:30.386Z,100194.28
2022-08-26T07:22:02.277Z,100186.53
2022-08-26T07:24:33.433Z,100187.62
2022-08-26T07:27:06.416Z,100196.53
2022-08-26T07:29:36.198Z,100177.53
2022-08-26T07:32:05.233Z,100177.72
2022-08-26T07:34:33.481Z,100182.63
2022-08-26T07:37:02.003Z,100174.62
2022-08-26T07:39:31.438Z,100171.59
2022-08-26T07:42:08.038Z,100168.69
2022-08-26T07:44:37.634Z,100169.03
2022-08-26T07:47:24.041Z,100168.47
2022-08-26T07:49:56.201Z,100159.97
2022-08-26T07:52:27.201Z,100164.62
2022-08-26T07:55:01.452Z,100168.12
2022-08-26T07:57:30.495Z,100166.28
2022-08-26T07:59:59.793Z,100170.66
2022-08-26T08:02:29.421Z,100165.06
2022-08-26T08:04:58.531Z,100161.34
2022-08-26T08:07:45.107Z,100159.37
2022-08-26T08:10:17.717Z,100149.44
2022-08-26T08:12:47.096Z,100152.13
2022-08-26T08:15:17.117Z,100147.91
2022-08-26T08:17:44.880Z,100146.66
2022-08-26T08:20:14.575Z,100139.88
2022-08-26T08:22:43.260Z,100144.75
2022-08-26T08:25:12.471Z,100142.66
2022-08-26T08:27:42.230Z,100144.22
2022-08-26T08:30:10.926Z,100136.88
2022-08-26T08:32:43.796Z,100136.38
2022-08-26T08:35:17.284Z,100136.69
2022-08-26T08:37:45.478Z,100132.56
2022-08-26T08:40:19.028Z,100133.50
2022-08-26T08:43:11.400Z,100130.25
2022-08-26T08:45:57.920Z,100128.19
2022-08-26T08:48:51.361Z,100126.41
2022-08-26T08:51:46.013Z,100120.69
2022-08-26T08:54:14.540Z,100128.37
2022-08-26T08:56:50.014Z,100125.53
2022-08-26T08:59:32.888Z,100122.59
2022-08-26T09:02:21.371Z,100113.50
2022-08-26T09:05:25.190Z,100114.72
2022-08-26T09:08:02.664Z,100114.44
2022-08-26T09:10:30.335Z,100113.56
2022-08-26T09:13:00.073Z,100109.00
2022-08-26T09:15:49.850Z,100107.72
2022-08-26T09:18:46.174Z,100107.63
2022-08-26T09:21:17.922Z,100099.50
2022-08-26T09:23:49.690Z,100091.37
2022-08-26T09:26:28.740Z,100087.59
2022-08-26T09:29:04.154Z,100090.00
2022-08-26T09:31:37.696Z,100090.09
2022-08-26T09:34:17.882Z,100087.28
2022-08-26T09:36:53.509Z,100089.19
2022-08-26T09:39:28.011Z,100083.16
2022-08-26T09:42:03.566Z,100072.94
2022-08-26T09:44:31.873Z,100073.94
2022-08-26T09:47:05.237Z,100070.13
2022-08-26T09:49:39.189Z,100072.75
2022-08-26T09:52:14.736Z,100068.06
2022-08-26T09:54:46.036Z,100067.09
2022-08-26T09:57:16.797Z,100065.59
2022-08-26T09:59:45.397Z,100070.47
2022-08-26T10:02:34.060Z,100072.00
2022-08-26T10:05:09.659Z,100068.84
2022-08-26T10:07:51.075Z,100076.09
2022-08-26T10:10:25.177Z,100066.16
2022-08-26T10:13:03.483Z,100064.53
2022-08-26T10:15:41.799Z,100063.56
2022-08-26T10:18:30.727Z,100065.69
2022-08-26T10:21:07.744Z,100063.44
2022-08-26T10:23:43.526Z,100067.69
2022-08-26T10:26:19.424Z,100063.91
2022-08-26T10:28:52.756Z,100057.16
2022-08-26T10:31:27.739Z,100052.47
2022-08-26T10:33:58.879Z,100054.66
2022-08-26T10:37:15.065Z,100056.06
2022-08-26T10:39:42.715Z,100043.81
2022-08-26T10:42:22.275Z,100057.16
2022-08-26T10:44:58.679Z,100057.72
2022-08-26T10:48:01.309Z,100049.84
2022-08-26T10:50:41.614Z,100056.94
2022-08-26T10:53:34.633Z,100042.00
2022-08-26T10:56:06.296Z,100038.69
2022-08-26T10:59:00.380Z,100045.19
2022-08-26T11:01:47.149Z,100038.97
2022-08-26T11:04:34.980Z,100027.31
2022-08-26T11:07:41.937Z,100024.19
2022-08-26T11:10:22.624Z,100029.06
2022-08-26T11:13:03.617Z,100025.47
2022-08-26T11:15:32.369Z,100028.94
2022-08-26T11:18:08.075Z,100026.72
2022-08-26T11:20:41.952Z,100014.88
2022-08-26T11:23:13.084Z,100020.84
2022-08-26T11:25:57.154Z,100013.41
2022-08-26T11:28:44.905Z,100004.09
2022-08-26T11:31:19.119Z,100017.03
2022-08-26T11:33:51.061Z,100020.34
2022-08-26T11:36:37.776Z,100011.03
2022-08-26T11:39:36.941Z,100002.81
2022-08-26T11:42:28.612Z,99998.69
2022-08-26T11:44:58.254Z,99997.56
2022-08-26T11:47:32.331Z,99988.09
2022-08-26T11:50:23.547Z,99991.09
2022-08-26T11:53:06.399Z,99989.47
2022-08-26T11:55:43.622Z,99976.06
2022-08-26T11:58:14.487Z,99984.41
2022-08-26T12:01:00.492Z,99981.69
2022-08-26T12:03:40.361Z,99981.25
2022-08-26T12:06:23.339Z,99970.72
2022-08-26T12:08:53.689Z,99979.22
2022-08-26T12:11:24.897Z,99979.16
2022-08-26T12:13:57.620Z,99973.03
2022-08-26T12:16:27.934Z,99976.59
2022-08-26T12:18:56.093Z,99980.47
2022-08-26T12:21:29.741Z,99973.69
2022-08-26T12:24:04.123Z,99965.25
2022-08-26T12:26:35.898Z,99970.97
2022-08-26T12:29:20.363Z,99975.03
2022-08-26T12:32:17.771Z,99958.81
2022-08-26T12:34:49.162Z,99961.56
2022-08-26T12:37:18.887Z,99968.28
2022-08-26T12:39:49.113Z,99961.38
2022-08-26T12:42:19.924Z,99952.53
2022-08-26T12:45:06.678Z,99960.22
2022-08-26T12:47:44.111Z,99950.44
2022-08-26T12:50:23.913Z,99957.97
2022-08-26T12:53:00.730Z,99954.94
2022-08-26T12:55:31.717Z,99945.09
2022-08-26T12:58:18.514Z,99952.88
2022-08-26T13:00:50.470Z,99944.19
2022-08-26T13:03:46.094Z,99937.19
2022-08-26T13:06:23.317Z,99938.63
2022-08-26T13:08:54.463Z,99933.75
2022-08-26T13:11:40.768Z,99931.22
2022-08-26T13:14:21.121Z,99931.75
2022-08-26T13:16:53.601Z,99931.63
2022-08-26T13:19:24.129Z,99937.75
2022-08-26T13:22:01.570Z,99928.97
2022-08-26T13:24:35.220Z,99930.94
2022-08-26T13:27:05.147Z,99939.41
2022-08-26T13:29:33.060Z,99934.56
2022-08-26T13:32:01.454Z,99933.69
2022-08-26T13:34:30.388Z,99929.00
2022-08-26T13:36:58.551Z,99923.72
2022-08-26T13:39:27.014Z,99919.28
2022-08-26T13:41:55.061Z,99916.56
2022-08-26T13:44:22.843Z,99926.91
2022-08-26T13:46:50.535Z,99921.75
2022-08-26T13:49:18.453Z,99914.28
2022-08-26T13:51:46.197Z,99923.63
2022-08-26T13:54:13.917Z,99921.81
2022-08-26T13:56:41.865Z,99917.72
2022-08-26T13:59:10.046Z,99916.69
2022-08-26T14:01:39.883Z,99912.91
2022-08-26T14:04:11.519Z,99909.50
2022-08-26T14:06:39.205Z,99913.97
2022-08-26T14:09:06.913Z,99911.44
2022-08-26T14:11:41.235Z,99914.16
2022-08-26T14:14:22.049Z,99907.88
2022-08-26T14:16:58.928Z,99907.00
2022-08-26T14:19:30.053Z,99911.91
2022-08-26T14:22:00.816Z,99906.03
2022-08-26T14:24:29.318Z,99907.88
2022-08-26T14:26:57.083Z,99910.69
2022-08-26T14:29:25.099Z,99908.75
2022-08-26T14:31:54.102Z,99917.28
2022-08-26T14:34:21.894Z,99905.81
2022-08-26T14:36:49.859Z,99911.53
2022-08-26T14:39:17.535Z,99909.50
2022-08-26T14:41:56.420Z,99906.22
2022-08-26T14:44:28.210Z,99905.97
2022-08-26T14:46:56.390Z,99898.62
2022-08-26T14:49:27.337Z,99908.00
2022-08-26T14:51:55.715Z,99908.53
2022-08-26T14:54:23.476Z,99905.12
2022-08-26T14:57:00.468Z,99904.19
2022-08-26T14:59:31.988Z,99902.63
2022-08-26T15:02:00.932Z,99901.19
2022-08-26T15:04:28.817Z,99908.69
2022-08-26T15:06:59.003Z,99908.06
2022-08-26T15:09:29.454Z,99899.91
2022-08-26T15:11:57.675Z,99907.75
2022-08-26T15:14:27.653Z,99915.00
2022-08-26T15:17:00.654Z,99917.87
2022-08-26T15:19:28.623Z,99913.00
2022-08-26T15:21:56.513Z,99906.47
2022-08-26T15:24:26.286Z,99911.00
2022-08-26T15:26:54.367Z,99915.28
2022-08-26T15:29:24.004Z,99908.78
2022-08-26T15:31:51.920Z,99913.34
2022-08-26T15:34:22.973Z,99911.13
2022-08-26T15:36:50.713Z,99909.44
2022-08-26T15:39:19.721Z,99908.25
2022-08-26T15:41:47.660Z,99910.78
2022-08-26T15:44:17.024Z,99903.88
2022-08-26T15:46:45.364Z,99904.91
2022-08-26T15:49:18.458Z,99905.88
2022-08-26T15:51:50.465Z,99913.12
2022-08-26T15:54:22.364Z,99905.22
2022-08-26T15:56:52.553Z,99903.66
2022-08-26T15:59:21.795Z,99911.56
2022-08-26T16:01:49.875Z,99914.06
2022-08-26T16:04:18.762Z,99908.59
2022-08-26T16:06:50.243Z,99904.75
2022-08-26T16:09:24.338Z,99909.25
2022-08-26T16:11:56.997Z,99912.22
2022-08-26T16:14:26.609Z,99911.47
2022-08-26T16:16:58.015Z,99903.84
2022-08-26T16:19:27.589Z,99910.03
2022-08-26T16:21:55.321Z,99912.38
2022-08-26T16:24:27.177Z,99917.78
2022-08-26T16:26:58.363Z,99913.88
2022-08-26T16:29:26.704Z,99906.56
2022-08-26T16:31:54.836Z,99902.75
2022-08-26T16:34:23.040Z,99900.25
2022-08-26T16:36:51.053Z,99898.72
2022-08-26T16:39:18.719Z,99895.34
2022-08-26T16:41:46.796Z,99897.34
2022-08-26T16:44:14.557Z,99899.97
2022-08-26T16:46:42.434Z,99895.06
2022-08-26T16:49:10.487Z,99892.44
2022-08-26T16:51:38.578Z,99898.38
2022-08-26T16:54:07.880Z,99892.09
2022-08-26T16:56:37.100Z,99893.41
2022-08-26T16:59:07.765Z,99896.75
2022-08-26T17:01:35.656Z,99892.03
2022-08-26T17:04:03.964Z,99891.00
2022-08-26T17:06:31.714Z,99894.94
2022-08-26T17:09:00.598Z,99889.06
2022-08-26T17:11:28.624Z,99896.59
2022-08-26T17:13:56.983Z,99895.63
2022-08-26T17:16:27.031Z,99896.72
2022-08-26T17:18:56.875Z,99895.53
2022-08-26T17:21:26.067Z,99901.25
2022-08-26T17:23:54.211Z,99900.09
2022-08-26T17:26:22.639Z,99892.94
2022-08-26T17:28:51.204Z,99889.25
2022-08-26T17:31:19.558Z,99897.06
2022-08-26T17:33:53.250Z,99881.03
2022-08-26T17:36:28.116Z,99891.03
2022-08-26T17:38:57.584Z,99897.03
2022-08-26T17:41:25.909Z,99899.34
2022-08-26T17:43:53.669Z,99896.06
2022-08-26T17:46:22.187Z,99901.84
2022-08-26T17:48:49.971Z,99907.69
2022-08-26T17:51:19.515Z,99906.28
2022-08-26T17:53:48.659Z,99901.41
2022-08-26T17:56:19.095Z,99904.66
2022-08-26T17:58:48.052Z,99899.38
2022-08-26T18:01:26.191Z,99909.37
2022-08-26T18:04:00.126Z,99901.94
2022-08-26T18:06:30.650Z,99906.78
2022-08-26T18:08:59.899Z,99904.69
2022-08-26T18:11:33.690Z,99909.63
2022-08-26T18:14:02.184Z,99916.44
2022-08-26T18:16:31.743Z,99917.06
2022-08-26T18:18:59.909Z,99919.66
2022-08-26T18:21:28.110Z,99914.19
2022-08-26T18:23:56.540Z,99912.19
2022-08-26T18:26:30.087Z,99913.38
2022-08-26T18:28:58.834Z,99911.81
2022-08-26T18:31:27.221Z,99907.81
2022-08-26T18:33:55.231Z,99921.97
2022-08-26T18:36:26.887Z,99913.16
2022-08-26T18:38:55.634Z,99912.00
2022-08-26T18:41:25.966Z,99914.53
2022-08-26T18:43:54.160Z,99923.63
2022-08-26T18:46:27.100Z,99918.38
2022-08-26T18:48:57.097Z,99916.75
2022-08-26T18:51:29.661Z,99909.97
2022-08-26T18:53:59.674Z,99914.69
2022-08-26T18:56:28.577Z,99904.69
2022-08-26T18:58:56.295Z,99899.88
2022-08-26T19:01:27.387Z,99906.59
2022-08-26T19:03:57.686Z,99904.28
2022-08-26T19:06:26.119Z,99907.03
2022-08-26T19:08:53.986Z,99903.38
2022-08-26T19:11:32.135Z,99906.03
2022-08-26T19:14:02.450Z,99904.91
2022-08-26T19:16:30.867Z,99906.44
2022-08-26T19:19:00.710Z,99902.56
2022-08-26T19:21:29.857Z,99906.81
2022-08-26T19:23:59.275Z,99907.19
2022-08-26T19:26:29.348Z,99912.16
2022-08-26T19:28:57.447Z,99912.94
2022-08-26T19:31:25.290Z,99915.59
2022-08-26T19:33:53.094Z,99909.87
2022-08-26T19:36:24.871Z,99917.13
2022-08-26T19:38:53.594Z,99908.75
2022-08-26T19:41:34.158Z,99911.00
2022-08-26T19:44:11.189Z,99908.75
2022-08-26T19:49:12.193Z,99904.53
2022-08-26T19:51:40.343Z,99909.13
2022-08-26T19:54:08.139Z,99908.34
2022-08-26T19:56:36.609Z,99913.31
2022-08-26T19:59:04.737Z,99916.31
2022-08-26T20:01:32.487Z,99921.66
2022-08-26T20:04:00.831Z,99923.97
2022-08-26T20:06:28.627Z,99922.84
2022-08-26T20:08:56.474Z,99923.66
2022-08-26T20:11:24.600Z,99920.16
2022-08-26T20:13:52.340Z,99922.50
2022-08-26T20:16:20.123Z,99933.84
2022-08-26T20:19:06.983Z,99927.38
2022-08-26T20:21:38.207Z,99936.84
2022-08-26T20:24:12.682Z,99931.38
2022-08-26T20:26:46.141Z,99926.97
2022-08-26T20:29:17.306Z,99934.56
2022-08-26T20:31:46.622Z,99932.69
2022-08-26T20:34:18.520Z,99928.44
2022-08-26T20:36:47.862Z,99937.88
2022-08-26T20:39:17.948Z,99928.44
2022-08-26T20:41:45.735Z,99928.03
2022-08-26T20:44:13.916Z,99930.38
2022-08-26T20:46:42.040Z,99924.69
2022-08-26T20:49:10.058Z,99932.91
2022-08-26T20:51:37.818Z,99927.69
2022-08-26T20:54:07.122Z,99939.28
2022-08-26T20:56:35.688Z,99938.13
2022-08-26T20:59:05.400Z,99933.63
2022-08-26T21:01:36.180Z,99928.91
2022-08-26T21:04:04.887Z,99937.59
2022-08-26T21:06:34.031Z,99941.03
2022-08-26T21:09:03.615Z,99943.66
2022-08-26T21:11:32.096Z,99936.19
2022-08-26T21:14:06.780Z,99938.97
2022-08-26T21:16:44.767Z,99937.00
2022-08-26T21:19:15.057Z,99942.41
2022-08-26T21:21:43.171Z,99943.34
2022-08-26T21:24:10.995Z,99943.16
2022-08-26T21:26:39.378Z,99941.78
2022-08-26T21:29:09.891Z,99944.09
2022-08-26T21:31:44.901Z,99950.19
2022-08-26T21:34:18.732Z,99946.56
2022-08-26T21:36:47.978Z,99947.78
2022-08-26T21:39:16.444Z,99944.56
2022-08-26T21:41:45.439Z,99944.25
2022-08-26T21:44:15.386Z,99946.53
2022-08-26T21:46:45.169Z,99944.28
2022-08-26T21:49:15.749Z,99945.75
2022-08-26T21:51:46.437Z,99941.22
2022-08-26T21:54:14.320Z,99951.41
2022-08-26T21:56:47.154Z,99947.87
2022-08-26T21:59:18.078Z,99951.38
2022-08-26T22:01:46.279Z,99956.41
2022-08-26T22:04:14.835Z,99954.16
2022-08-26T22:06:48.848Z,99969.81
2022-08-26T22:09:21.625Z,99974.22
2022-08-26T22:11:50.201Z,99976.72
2022-08-26T22:14:22.078Z,99971.44
2022-08-26T22:16:50.990Z,99967.06
2022-08-26T22:19:20.638Z,99974.59
2022-08-26T22:21:53.898Z,99980.44
2022-08-26T22:24:24.194Z,99980.38
2022-08-26T22:26:52.619Z,99969.03
2022-08-26T22:29:20.914Z,99970.78
2022-08-26T22:31:49.064Z,99982.09
2022-08-26T22:34:17.529Z,99979.00
2022-08-26T22:36:47.314Z,99976.25
2022-08-26T22:39:19.366Z,99977.09
2022-08-26T22:41:48.589Z,99968.78
2022-08-26T22:44:18.453Z,99978.78
2022-08-26T22:46:47.447Z,99971.59
2022-08-26T22:49:16.498Z,99976.50
2022-08-26T22:51:46.294Z,99973.75
2022-08-26T22:54:14.961Z,99972.03
2022-08-26T22:56:44.852Z,99973.59
2022-08-26T22:59:13.202Z,99969.06
2022-08-26T23:01:42.992Z,99958.62
2022-08-26T23:04:11.592Z,99966.44
2022-08-26T23:06:42.680Z,99960.16
2022-08-26T23:09:10.876Z,99959.06
2022-08-26T23:11:42.983Z,99958.38
2022-08-26T23:14:11.295Z,99956.72
2022-08-26T23:16:41.972Z,99954.25
2022-08-26T23:19:11.536Z,99962.94
2022-08-26T23:21:40.425Z,99957.44
2022-08-26T23:24:09.593Z,99955.78
2022-08-26T23:26:39.140Z,99957.50
2022-08-26T23:29:09.424Z,99954.03
2022-08-26T23:31:39.042Z,99962.31
2022-08-26T23:34:26.098Z,99951.38
2022-08-26T23:36:57.035Z,99956.94
2022-08-26T23:39:25.759Z,99955.44
2022-08-26T23:41:53.503Z,99947.19
2022-08-26T23:44:21.327Z,99948.03
2022-08-26T23:46:49.380Z,99943.78
2022-08-26T23:49:17.082Z,99939.69
2022-08-26T23:52:03.710Z,99941.59
2022-08-26T23:54:32.783Z,99935.06
2022-08-26T23:57:00.659Z,99936.00
2022-08-26T23:59:28.464Z,99921.91
